Time;durP1;ratioP1;P1;durP2;ratioP2;P2;SDS_P1;SDS_P2;PMS_P1;PMS_P2;Temp;Humidity;BMP_temperature;BMP_pressure;BME280_temperature;BME280_humidity;BME280_pressure;Samples;Min_cycle;Max_cycle;Signal;HPM_P1;HPM_P2
2022/02/19 00:01:38;;;;;;;11.77;2.53;;;;;;;-142.75;100.00;77196.31;5028256;28;20033;-67
2022/02/19 00:04:04;;;;;;;12.88;2.05;;;;;;;-142.75;100.00;77202.22;5024648;28;20025;-67
2022/02/19 00:06:33;;;;;;;8.50;2.20;;;;;;;-142.75;100.00;77180.56;5026471;28;20084;-69
2022/02/19 00:08:58;;;;;;;12.27;2.30;;;;;;;-142.75;100.00;77212.06;5025228;28;20496;-67
2022/02/19 00:11:23;;;;;;;17.27;2.33;;;;;;;-142.75;100.00;77219.94;5029330;28;20056;-68
2022/02/19 00:13:50;;;;;;;14.82;2.70;;;;;;;-142.75;100.00;77221.91;5029275;28;20105;-68
2022/02/19 00:16:15;;;;;;;15.55;2.45;;;;;;;-142.75;100.00;77245.53;5017810;28;20100;-68
2022/02/19 00:18:40;;;;;;;14.45;2.13;;;;;;;-142.75;100.00;77247.50;5032702;28;20060;-69
2022/02/19 00:21:05;;;;;;;17.40;2.05;;;;;;;-142.75;100.00;77257.34;5032726;28;20037;-68
2022/02/19 00:23:31;;;;;;;17.33;2.13;;;;;;;-142.75;100.00;77259.31;5032788;28;20395;-68
2022/02/19 00:25:57;;;;;;;14.45;1.80;;;;;;;-142.75;100.00;77251.44;5031475;28;20480;-68
2022/02/19 00:28:22;;;;;;;;;;;;;;;-142.75;100.00;77261.28;5032891;28;20479;-67
2022/02/19 00:30:48;;;;;;;10.30;1.67;;;;;;;-142.75;100.00;77253.41;4993093;28;1139576;-67
2022/02/19 00:33:13;;;;;;;12.60;1.73;;;;;;;-142.75;100.00;77277.03;5033787;28;20025;-68
2022/02/19 00:35:38;;;;;;;8.67;2.03;;;;;;;-142.75;100.00;77286.88;5033881;28;20368;-67
2022/02/19 00:38:03;;;;;;;12.77;1.83;;;;;;;-142.75;100.00;77286.88;5033442;28;20033;-70
2022/02/19 00:40:29;;;;;;;11.25;1.42;;;;;;;-142.75;100.00;77292.78;5029396;28;20156;-68
2022/02/19 00:42:54;;;;;;;12.40;2.28;;;;;;;-142.75;100.00;77290.81;5032388;28;20495;-69
2022/02/19 00:45:19;;;;;;;12.25;1.83;;;;;;;-142.75;100.00;77302.63;5033615;28;20033;-68
2022/02/19 00:47:45;;;;;;;10.68;1.70;;;;;;;-142.75;100.00;77290.81;5032408;28;20515;-68
2022/02/19 00:50:10;;;;;;;6.22;1.55;;;;;;;-142.75;100.00;77310.50;5032075;28;20028;-68
2022/02/19 00:52:36;;;;;;;10.57;2.17;;;;;;;-142.75;100.00;77318.38;5033490;28;20025;-68
2022/02/19 00:55:02;;;;;;;7.60;2.13;;;;;;;-142.75;100.00;77310.50;5033514;28;20025;-68
2022/02/19 00:57:28;;;;;;;21.00;1.88;;;;;;;-142.75;100.00;77302.63;5028486;28;20383;-69
2022/02/19 00:59:53;;;;;;;7.20;1.52;;;;;;;-142.75;100.00;77322.31;5013371;28;20021;-70
2022/02/19 01:02:18;;;;;;;7.93;2.30;;;;;;;-142.75;100.00;77338.06;5013624;28;20024;-68
2022/02/19 01:04:43;;;;;;;6.23;1.37;;;;;;;-142.75;100.00;77334.13;5013590;28;20487;-68
2022/02/19 01:07:09;;;;;;;18.70;1.93;;;;;;;-142.75;100.00;77340.03;5013459;28;20297;-68
2022/02/19 01:09:34;;;;;;;12.43;1.53;;;;;;;-142.75;100.00;77343.97;5013292;28;20693;-68
2022/02/19 01:11:59;;;;;;;12.55;2.10;;;;;;;-142.75;100.00;77353.81;5013374;28;20022;-68
2022/02/19 01:14:25;;;;;;;11.20;1.52;;;;;;;-142.75;100.00;77373.50;5013489;28;20561;-68
2022/02/19 01:16:50;;;;;;;9.20;1.55;;;;;;;-142.75;100.00;77357.75;5012089;28;20492;-69
2022/02/19 01:19:15;;;;;;;6.18;1.58;;;;;;;-142.75;100.00;77373.50;5013155;28;20542;-68
2022/02/19 01:21:41;;;;;;;9.85;1.95;;;;;;;-142.75;100.00;77369.56;5013273;28;20041;-68
2022/02/19 01:24:06;;;;;;;9.63;1.92;;;;;;;-142.75;100.00;77373.50;5011221;28;20030;-68
2022/02/19 01:26:33;;;;;;;9.65;1.27;;;;;;;-142.75;100.00;77357.75;5012860;28;20029;-68
2022/02/19 01:28:58;;;;;;;11.57;2.17;;;;;;;-142.75;100.00;77373.50;5011555;28;20080;-68
2022/02/19 01:31:24;;;;;;;12.43;1.70;;;;;;;-142.75;100.00;77387.28;5012973;28;20502;-68
2022/02/19 01:33:50;;;;;;;;;;;;;;;-142.75;100.00;77371.53;5027527;28;20025;-68
2022/02/19 01:36:15;;;;;;;10.73;1.60;;;;;;;-142.75;100.00;77383.34;5026287;28;20275;-67
2022/02/19 01:38:40;;;;;;;8.07;1.25;;;;;;;-142.75;100.00;77385.31;5011467;28;20531;-68
2022/02/19 01:41:06;;;;;;;8.20;1.50;;;;;;;-142.75;100.00;77391.22;5012782;28;20030;-68
2022/02/19 01:43:31;;;;;;;12.32;1.77;;;;;;;-142.75;100.00;77395.16;5012921;28;20029;-68
2022/02/19 01:45:56;;;;;;;11.82;2.20;;;;;;;-142.75;100.00;77405.00;5012702;28;20026;-67
2022/02/19 01:48:22;;;;;;;10.17;1.50;;;;;;;-142.75;100.00;77408.94;5012535;28;20029;-68
2022/02/19 01:50:47;;;;;;;11.20;1.80;;;;;;;-142.75;100.00;77405.00;5012581;28;20372;-68
2022/02/19 01:53:15;;;;;;;12.45;2.08;;;;;;;-142.75;100.00;77414.84;5012723;28;20029;-70
2022/02/19 01:55:40;;;;;;;13.37;1.90;;;;;;;-142.75;100.00;77416.81;5012400;28;20033;-68
2022/02/19 01:58:07;;;;;;;9.55;1.83;;;;;;;-142.75;100.00;77428.63;5012455;28;20036;-66
2022/02/19 02:00:32;;;;;;;11.87;2.20;;;;;;;-142.75;100.00;77430.59;5011156;28;20117;-68
2022/02/19 02:02:58;;;;;;;8.02;1.35;;;;;;;-142.75;100.00;77424.69;5012667;28;20120;-68
2022/02/19 02:05:24;;;;;;;12.38;1.83;;;;;;;-142.75;100.00;77434.53;5012302;28;20033;-68
2022/02/19 02:07:49;;;;;;;10.48;1.58;;;;;;;-142.75;100.00;77430.59;5012247;28;20072;-68
2022/02/19 02:10:15;;;;;;;13.18;1.52;;;;;;;-142.75;100.00;77448.34;5012205;28;20022;-68
2022/02/19 02:12:40;;;;;;;7.95;1.55;;;;;;;-142.75;100.00;77452.25;5012327;28;20438;-68
2022/02/19 02:15:22;;;;;;;14.40;1.95;;;;;;;-142.75;100.00;77444.38;5012325;28;20038;-68
2022/02/19 02:17:48;;;;;;;7.43;1.87;;;;;;;-142.75;100.00;77454.25;5031315;28;20030;-68
2022/02/19 02:20:13;;;;;;;8.85;1.90;;;;;;;-142.75;100.00;77468.03;5030522;28;20025;-68
2022/02/19 02:22:38;;;;;;;9.40;1.70;;;;;;;-142.75;100.00;77477.88;5030563;28;20475;-68
2022/02/19 02:25:07;;;;;;;11.60;2.03;;;;;;;-142.75;100.00;77487.72;5031742;28;20017;-69
2022/02/19 02:27:32;;;;;;;9.00;1.70;;;;;;;-142.75;100.00;77483.78;5031666;28;20120;-68
2022/02/19 02:29:57;;;;;;;10.57;1.38;;;;;;;-142.75;100.00;77491.66;5031507;28;20475;-68
2022/02/19 02:32:23;;;;;;;9.32;1.88;;;;;;;-142.75;100.00;77481.81;5031577;28;20032;-68
2022/02/19 02:34:54;;;;;;;11.87;1.80;;;;;;;-142.75;100.00;77487.72;5031479;28;20468;-68
2022/02/19 02:37:20;;;;;;;16.10;2.90;;;;;;;-142.75;100.00;77493.63;5031320;28;20270;-67
2022/02/19 02:39:48;;;;;;;13.80;3.13;;;;;;;-142.75;100.00;77507.41;5031324;28;20445;-68
2022/02/19 02:42:18;;;;;;;16.97;2.10;;;;;;;-142.75;100.00;77511.34;5031461;28;20052;-68
2022/02/19 02:44:43;;;;;;;10.60;1.80;;;;;;;-142.75;100.00;77503.47;5031440;28;20108;-68
2022/02/19 02:47:09;;;;;;;10.13;2.20;;;;;;;-142.75;100.00;77513.31;5031431;28;20112;-67
2022/02/19 02:49:35;;;;;;;15.68;2.50;;;;;;;-142.75;100.00;77521.19;5031020;28;20092;-68
2022/02/19 02:52:01;;;;;;;;;;;;;;;-142.75;100.00;77527.09;5031587;28;20025;-68
2022/02/19 02:54:26;;;;;;;17.50;2.23;;;;;;;-142.75;100.00;77523.16;5031228;28;20393;-68
2022/02/19 02:56:51;;;;;;;12.20;2.22;;;;;;;-142.75;100.00;77538.91;5031423;28;20024;-68
2022/02/19 02:59:17;;;;;;;10.90;1.95;;;;;;;-142.75;100.00;77538.91;5029583;28;20018;-68
2022/02/19 03:01:42;;;;;;;18.33;2.43;;;;;;;-142.75;100.00;77523.16;5031149;28;20040;-67
2022/02/19 03:04:07;;;;;;;11.63;2.70;;;;;;;-142.75;100.00;77533.00;5031153;28;20323;-67
2022/02/19 03:06:33;;;;;;;13.98;1.98;;;;;;;-142.75;100.00;77527.09;5030893;28;20031;-68
2022/02/19 03:08:58;;;;;;;12.50;2.43;;;;;;;-142.75;100.00;77533.00;5030869;28;20028;-68
2022/02/19 03:11:23;;;;;;;9.87;1.97;;;;;;;-142.75;100.00;77536.94;5030869;28;20272;-68
2022/02/19 03:13:49;;;;;;;11.50;1.88;;;;;;;-142.75;100.00;77542.84;5031017;28;20491;-68
2022/02/19 03:16:14;;;;;;;18.73;2.22;;;;;;;-142.75;100.00;77548.75;5029691;28;20025;-68
2022/02/19 03:18:39;;;;;;;11.05;1.77;;;;;;;-142.75;100.00;77554.66;5029357;28;20033;-68
2022/02/19 03:21:05;;;;;;;7.90;2.27;;;;;;;-142.75;100.00;77562.53;5030790;28;20021;-67
2022/02/19 03:23:30;;;;;;;18.73;2.08;;;;;;;-142.75;100.00;77566.47;5030926;28;20090;-67
2022/02/19 03:25:55;;;;;;;16.67;3.08;;;;;;;-142.75;100.00;77562.53;5030887;28;20116;-68
2022/02/19 03:28:21;;;;;;;16.42;1.73;;;;;;;-142.75;100.00;77582.22;5029239;28;20029;-67
2022/02/19 03:30:46;;;;;;;13.60;2.17;;;;;;;-142.75;100.00;77582.22;5030642;28;20028;-68
2022/02/19 03:33:11;;;;;;;15.65;2.80;;;;;;;-142.75;100.00;77564.50;5029597;28;20040;-68
2022/02/19 03:35:37;;;;;;;21.05;2.38;;;;;;;-142.75;100.00;77580.25;5030700;28;20380;-67
2022/02/19 03:38:02;;;;;;;14.20;2.07;;;;;;;-142.75;100.00;77590.09;5029279;28;20120;-68
2022/02/19 03:40:27;;;;;;;12.73;2.47;;;;;;;-142.75;100.00;77586.16;5030640;28;20282;-68
2022/02/19 03:42:53;;;;;;;10.40;2.03;;;;;;;-142.75;100.00;77594.03;5030656;28;20390;-68
2022/02/19 03:45:18;;;;;;;17.47;1.97;;;;;;;-142.75;100.00;77586.16;5014011;28;20646;-68
2022/02/19 03:47:46;;;;;;;12.80;1.98;;;;;;;-142.75;100.00;77596.00;5011549;28;20292;-68
2022/02/19 03:50:17;;;;;;;14.67;2.20;;;;;;;-142.75;100.00;77592.06;5013410;28;20083;-68
2022/02/19 03:52:43;;;;;;;11.20;1.63;;;;;;;-142.75;100.00;77597.97;5014825;28;20040;-67
2022/02/19 03:55:09;;;;;;;11.88;2.22;;;;;;;-142.75;100.00;77609.78;5013653;28;20021;-68
2022/02/19 03:57:34;;;;;;;16.52;2.22;;;;;;;-142.75;100.00;77613.72;5014842;28;20476;-68
2022/02/19 04:00:00;;;;;;;19.38;2.40;;;;;;;-142.75;100.00;77625.53;5014646;28;20033;-69
2022/02/19 04:02:25;;;;;;;16.40;2.85;;;;;;;-142.75;100.00;77615.69;5014568;28;20026;-68
2022/02/19 04:04:50;;;;;;;17.17;1.92;;;;;;;-142.75;100.00;77625.53;5014603;28;20057;-68
2022/02/19 04:07:15;;;;;;;13.20;2.30;;;;;;;-142.75;100.00;77613.72;5014644;28;20029;-67
2022/02/19 04:09:41;;;;;;;15.43;2.40;;;;;;;-142.75;100.00;77637.34;5014341;28;20371;-68
2022/02/19 04:12:07;;;;;;;13.45;1.75;;;;;;;-142.75;100.00;77623.56;5014573;28;20483;-67
2022/02/19 04:14:32;;;;;;;11.13;1.67;;;;;;;-142.75;100.00;77637.34;5014496;28;20029;-69
2022/02/19 04:16:57;;;;;;;19.80;1.90;;;;;;;-142.75;100.00;77649.16;5013211;28;20125;-68
2022/02/19 04:19:23;;;;;;;18.02;2.13;;;;;;;-142.75;100.00;77649.16;5014046;28;20422;-67
2022/02/19 04:21:48;;;;;;;13.47;1.90;;;;;;;-142.75;100.00;77629.47;5013135;28;20026;-67
2022/02/19 04:24:13;;;;;;;13.93;1.73;;;;;;;-142.75;100.00;77653.09;5014430;28;20318;-68
2022/02/19 04:26:38;;;;;;;11.45;2.05;;;;;;;-142.75;100.00;77660.97;5014216;28;20292;-68
2022/02/19 04:29:04;;;;;;;13.75;1.65;;;;;;;-142.75;100.00;77666.88;5012746;28;20488;-68
2022/02/19 04:31:29;;;;;;;16.25;2.30;;;;;;;-142.75;100.00;77662.94;5037635;22;20101;-66
2022/02/19 04:33:54;;;;;;;11.85;3.20;;;;;;;-142.75;100.00;77678.69;5052519;28;20108;-67
2022/02/19 04:36:20;;;;;;;18.33;2.55;;;;;;;-142.75;100.00;77676.72;5070867;28;20043;-67
2022/02/19 04:38:46;;;;;;;16.25;1.92;;;;;;;-142.75;100.00;77676.72;5073484;28;20016;-66
2022/02/19 04:41:12;;;;;;;19.27;1.97;;;;;;;-142.75;100.00;77692.47;5073828;28;21536;-67
2022/02/19 04:43:37;;;;;;;12.98;2.30;;;;;;;-142.75;100.00;77700.34;5053645;28;20108;-67
2022/02/19 04:46:03;;;;;;;15.38;2.03;;;;;;;-142.75;100.00;77704.28;5053461;28;20053;-66
2022/02/19 04:48:28;;;;;;;9.23;1.60;;;;;;;-142.75;100.00;77698.38;5072983;28;20031;-67
2022/02/19 04:50:53;;;;;;;13.23;1.75;;;;;;;-142.75;100.00;77714.13;5072258;28;20029;-67
2022/02/19 04:53:19;;;;;;;20.90;2.38;;;;;;;-142.75;100.00;77725.97;5072122;28;20024;-67
2022/02/19 04:55:44;;;;;;;8.73;2.20;;;;;;;-142.75;100.00;77727.94;5073616;28;20489;-66
2022/02/19 04:58:09;;;;;;;12.50;2.20;;;;;;;-142.75;100.00;77739.75;5073203;28;20112;-67
2022/02/19 05:00:35;;;;;;;10.98;1.85;;;;;;;-142.75;100.00;77735.81;5071945;28;20425;-67
2022/02/19 05:03:01;;;;;;;8.27;1.45;;;;;;;-142.75;100.00;77759.44;5073464;28;20390;-67
2022/02/19 05:05:26;;;;;;;23.67;2.47;;;;;;;-142.75;100.00;77763.38;5073247;28;20039;-66
2022/02/19 05:07:51;;;;;;;13.37;2.37;;;;;;;-142.75;100.00;77761.41;5073072;28;20279;-66
2022/02/19 05:10:16;;;;;;;14.27;1.90;;;;;;;-142.75;100.00;77767.31;5071826;28;20504;-67
2022/02/19 05:12:42;;;;;;;15.77;2.60;;;;;;;-142.75;100.00;77767.31;5073217;28;20489;-67
2022/02/19 05:15:12;;;;;;;20.23;2.20;;;;;;;-142.75;100.00;77773.22;5071804;28;20761;-67
2022/02/19 05:17:45;;;;;;;12.80;2.30;;;;;;;-142.75;100.00;77767.31;5071775;28;20283;-66
2022/02/19 05:20:10;;;;;;;11.80;1.90;;;;;;;-142.75;100.00;77781.09;5071550;28;20040;-67
2022/02/19 05:22:36;;;;;;;9.88;1.75;;;;;;;-142.75;100.00;77777.16;5072979;28;20028;-67
2022/02/19 05:25:01;;;;;;;14.73;2.43;;;;;;;-142.75;100.00;77783.06;5072988;28;20020;-67
2022/02/19 05:27:26;;;;;;;14.43;2.08;;;;;;;-142.75;100.00;77771.25;5072785;28;20559;-67
2022/02/19 05:29:51;;;;;;;7.50;1.70;;;;;;;-142.75;100.00;77781.09;5072042;28;20062;-67
2022/02/19 05:32:17;;;;;;;9.30;1.90;;;;;;;-142.75;100.00;77783.06;5072559;28;20370;-67
2022/02/19 05:34:42;;;;;;;15.65;2.05;;;;;;;-142.75;100.00;77790.94;5073214;28;20078;-67
2022/02/19 05:37:07;;;;;;;8.35;1.98;;;;;;;-142.75;100.00;77792.91;5072778;28;20032;-67
2022/02/19 05:39:33;;;;;;;12.27;2.70;;;;;;;-142.75;100.00;77790.94;5072345;28;20367;-67
2022/02/19 05:41:58;;;;;;;11.77;2.25;;;;;;;-142.75;100.00;77794.88;5072575;28;20028;-67
2022/02/19 05:44:23;;;;;;;12.00;2.65;;;;;;;-142.75;100.00;77796.84;5072473;28;20445;-67
2022/02/19 05:46:49;;;;;;;18.23;2.53;;;;;;;-142.75;100.00;77810.63;5072441;28;20021;-67
2022/02/19 05:49:14;;;;;;;19.43;3.03;;;;;;;-142.75;100.00;77806.69;5072170;28;20351;-66
2022/02/19 05:51:39;;;;;;;10.27;1.93;;;;;;;-142.75;100.00;77806.69;5072567;28;20275;-66
2022/02/19 05:54:05;;;;;;;16.67;2.30;;;;;;;-142.75;100.00;77816.53;5072439;28;20127;-67
2022/02/19 05:56:30;;;;;;;9.73;2.40;;;;;;;-142.75;100.00;77818.50;5072257;28;20013;-67
2022/02/19 05:58:55;;;;;;;14.23;2.17;;;;;;;-142.75;100.00;77828.34;5072017;28;20039;-67
2022/02/19 06:01:21;;;;;;;13.13;1.97;;;;;;;-142.75;100.00;77828.34;5071982;28;20020;-67
2022/02/19 06:03:46;;;;;;;9.70;1.42;;;;;;;-142.75;100.00;77826.38;5072165;28;20055;-67
2022/02/19 06:06:12;;;;;;;9.65;1.67;;;;;;;-142.75;100.00;77828.34;5071978;28;20021;-67
2022/02/19 06:08:37;;;;;;;7.75;1.50;;;;;;;-142.75;100.00;77830.31;5070490;28;20074;-67
2022/02/19 06:11:03;;;;;;;19.73;2.40;;;;;;;-142.75;100.00;77846.06;5071619;28;20090;-67
2022/02/19 06:13:28;;;;;;;12.32;1.85;;;;;;;-142.75;100.00;77846.06;5071857;28;20107;-67
2022/02/19 06:15:58;;;;;;;9.50;1.67;;;;;;;-142.75;100.00;77844.09;5071991;28;20016;-67
2022/02/19 06:18:24;;;;;;;13.70;2.07;;;;;;;-142.75;100.00;77838.19;5071540;28;20266;-67
2022/02/19 06:20:49;;;;;;;16.83;3.35;;;;;;;-142.75;100.00;77840.16;5071733;28;20037;-67
2022/02/19 06:23:15;;;;;;;11.03;2.00;;;;;;;-142.75;100.00;77824.41;5071703;28;20028;-67
2022/02/19 06:25:40;;;;;;;13.07;2.10;;;;;;;-142.75;100.00;77844.09;5070282;28;20282;-67
2022/02/19 06:28:05;;;;;;;10.38;2.13;;;;;;;-142.75;100.00;77838.19;5071312;28;20036;-67
2022/02/19 06:30:30;;;;;;;16.17;2.67;;;;;;;-142.75;100.00;77842.13;5071656;28;20025;-67
2022/02/19 06:32:56;;;;;;;8.00;1.20;;;;;;;-142.75;100.00;77857.88;5071199;28;20263;-67
2022/02/19 06:35:21;;;;;;;10.13;1.55;;;;;;;-142.75;100.00;77861.81;5071522;28;20104;-67
2022/02/19 06:37:47;;;;;;;13.93;1.48;;;;;;;-142.75;100.00;77865.75;5071370;28;20614;-67
2022/02/19 06:40:15;;;;;;;13.23;1.73;;;;;;;-142.75;100.00;77865.75;5071413;28;20021;-67
2022/02/19 06:42:41;;;;;;;10.63;1.77;;;;;;;-142.75;100.00;77867.72;5071266;28;20020;-67
2022/02/19 06:45:08;;;;;;;9.33;1.80;;;;;;;-142.75;100.00;77865.75;5071346;28;20471;-67
2022/02/19 06:47:35;;;;;;;10.87;1.83;;;;;;;-142.75;100.00;77875.59;5069858;28;20107;-67
2022/02/19 06:50:02;;;;;;;11.10;2.17;;;;;;;-142.75;100.00;77873.63;5070961;28;20039;-68
2022/02/19 06:52:27;;;;;;;13.80;2.00;;;;;;;-142.75;100.00;77875.59;5071138;28;20016;-66
2022/02/19 06:54:53;;;;;;;19.00;1.88;;;;;;;-142.75;100.00;77875.59;5071363;28;20078;-67
2022/02/19 06:57:21;;;;;;;9.25;1.35;;;;;;;-142.75;100.00;77873.63;5071128;28;20496;-67
2022/02/19 06:59:48;;;;;;;15.97;2.33;;;;;;;-142.75;100.00;77869.69;5070635;28;20028;-66
2022/02/19 07:02:13;;;;;;;15.93;1.97;;;;;;;-142.75;100.00;77879.53;5071012;28;20378;-67
2022/02/19 07:04:39;;;;;;;15.60;2.13;;;;;;;-142.75;100.00;77879.53;5071027;28;20066;-67
2022/02/19 07:07:04;;;;;;;12.52;2.17;;;;;;;-142.75;100.00;77879.53;5070904;28;20019;-67
2022/02/19 07:09:30;;;;;;;10.95;1.63;;;;;;;-142.75;100.00;77885.44;5070616;28;20127;-67
2022/02/19 07:11:56;;;;;;;10.60;2.38;;;;;;;-142.75;100.00;77885.44;5070935;28;20402;-67
2022/02/19 07:14:21;;;;;;;10.85;1.83;;;;;;;-142.75;100.00;77889.38;5070905;28;20028;-67
2022/02/19 07:16:47;;;;;;;11.60;1.98;;;;;;;-142.75;100.00;77893.31;5070895;28;20457;-67
2022/02/19 07:19:13;;;;;;;8.38;1.58;;;;;;;-142.75;100.00;77885.44;5070611;28;20029;-67
2022/02/19 07:21:38;;;;;;;;;;;;;;;-142.75;100.00;77891.34;5071017;28;20037;-67
2022/02/19 07:24:05;;;;;;;17.77;1.83;;;;;;;-142.75;100.00;77891.34;5070322;28;20298;-67
2022/02/19 07:26:31;;;;;;;11.00;1.30;;;;;;;-142.75;100.00;77875.59;5070669;28;20009;-65
2022/02/19 07:28:56;;;;;;;5.13;1.10;;;;;;;-142.75;100.00;77871.66;5070548;28;20528;-66
2022/02/19 07:31:21;;;;;;;11.50;1.50;;;;;;;-142.75;100.00;77853.94;5070487;28;20039;-67
2022/02/19 07:33:47;;;;;;;15.20;1.90;;;;;;;-142.75;100.00;77836.22;5069457;28;20031;-67
2022/02/19 07:36:12;;;;;;;11.18;1.38;;;;;;;-142.75;100.00;77810.63;5069328;28;20047;-67
2022/02/19 07:38:37;;;;;;;8.48;1.85;;;;;;;-142.75;100.00;77802.75;5070441;28;20031;-67
2022/02/19 07:41:03;;;;;;;9.00;1.63;;;;;;;-142.75;100.00;77783.06;5070699;28;20051;-67
2022/02/19 07:43:28;;;;;;;10.25;1.48;;;;;;;-142.75;100.00;77771.25;5070540;28;20025;-67
2022/02/19 07:45:53;;;;;;;14.55;2.20;;;;;;;-142.75;100.00;77741.72;5070454;28;20031;-67
2022/02/19 07:48:19;;;;;;;19.08;2.47;;;;;;;-142.75;100.00;77727.94;5070285;28;20031;-67
2022/02/19 07:58:56;;;;;;;8.57;1.50;;;;;;;-142.75;100.00;77666.88;5070122;28;20047;-67
2022/02/19 08:01:22;;;;;;;11.57;1.75;;;;;;;-142.75;100.00;77660.97;5060184;28;20017;-67
2022/02/19 08:03:48;;;;;;;15.23;2.13;;;;;;;-142.75;100.00;77627.50;5069848;28;20024;-67
2022/02/19 08:06:13;;;;;;;16.20;1.80;;;;;;;-142.75;100.00;77623.56;5070195;28;20043;-67
2022/02/19 08:08:38;;;;;;;11.85;1.80;;;;;;;-142.75;100.00;77601.91;5069927;28;20097;-67
2022/02/19 08:11:04;;;;;;;13.10;1.50;;;;;;;-142.75;100.00;77627.50;5070283;28;20040;-67
2022/02/19 08:13:30;;;;;;;10.30;2.10;;;;;;;-142.75;100.00;77621.59;5070224;28;20031;-67
2022/02/19 08:15:55;;;;;;;11.68;1.77;;;;;;;-142.75;100.00;77596.00;5070349;28;20474;-67
2022/02/19 08:18:21;;;;;;;14.05;1.95;;;;;;;-142.75;100.00;77580.25;5069986;28;20028;-67
2022/02/19 08:20:49;;;;;;;14.32;2.13;;;;;;;-142.75;100.00;77574.34;5070224;28;20024;-67
2022/02/19 08:23:16;;;;;;;13.23;1.73;;;;;;;-142.75;100.00;77605.84;5069930;28;20111;-67
2022/02/19 08:25:43;;;;;;;12.20;2.47;;;;;;;-142.75;100.00;77623.56;5069081;28;20028;-67
2022/02/19 08:28:09;;;;;;;10.97;1.63;;;;;;;-142.75;100.00;77657.03;5057043;28;20569;-67
2022/02/19 08:30:36;;;;;;;7.73;1.53;;;;;;;-142.75;100.00;77631.44;5054103;28;20390;-67
2022/02/19 08:33:02;;;;;;;11.10;2.10;;;;;;;-142.75;100.00;77611.75;5052434;28;20024;-67
2022/02/19 08:35:28;;;;;;;17.80;2.40;;;;;;;-142.75;100.00;77623.56;5052561;28;20047;-67
2022/02/19 08:37:53;;;;;;;11.52;2.22;;;;;;;-142.75;100.00;77633.41;5068489;28;20024;-69
2022/02/19 08:40:18;;;;;;;15.43;1.85;;;;;;;-142.75;100.00;77605.84;5054908;28;20062;-67
2022/02/19 08:42:44;;;;;;;7.20;1.60;;;;;;;-142.75;100.00;77574.34;5058140;28;20017;-66
2022/02/19 08:45:10;;;;;;;7.63;1.63;;;;;;;-142.75;100.00;77613.72;5055252;28;20394;-67
2022/02/19 08:47:36;;;;;;;;;;;;;;;-142.75;100.00;77621.59;5072609;28;20020;-66
2022/02/19 08:50:03;;;;;;;18.57;2.40;;;;;;;-142.75;100.00;77659.00;5072419;28;19999;-66
2022/02/19 08:52:29;;;;;;;13.63;1.80;;;;;;;-142.75;100.00;77670.81;5072359;28;20029;-67
2022/02/19 08:54:54;;;;;;;19.38;2.13;;;;;;;-142.75;100.00;77700.34;5071279;28;20023;-66
2022/02/19 08:57:19;;;;;;;14.18;1.90;;;;;;;-142.75;100.00;77723.97;5072392;28;20025;-66
2022/02/19 08:59:45;;;;;;;9.20;1.80;;;;;;;-142.75;100.00;77737.78;5072242;28;20024;-67
2022/02/19 09:02:10;;;;;;;10.30;2.00;;;;;;;-142.75;100.00;77749.59;5070976;28;20024;-66
2022/02/19 09:04:35;;;;;;;9.02;1.77;;;;;;;-142.75;100.00;77751.56;5072417;28;20024;-67
2022/02/19 09:07:01;;;;;;;17.48;1.90;;;;;;;-142.75;100.00;77739.75;5072279;28;20024;-66
2022/02/19 09:09:26;;;;;;;14.60;2.08;;;;;;;-142.75;100.00;77743.69;5071928;28;20024;-66
2022/02/19 09:11:51;;;;;;;11.88;2.00;;;;;;;-142.75;100.00;77731.88;5071603;28;20366;-67
2022/02/19 09:14:17;;;;;;;13.60;1.85;;;;;;;-142.75;100.00;77712.16;5071703;28;20044;-68
2022/02/19 09:16:42;;;;;;;16.13;2.40;;;;;;;-142.75;100.00;77720.03;5071308;28;20151;-67
2022/02/19 09:19:08;;;;;;;11.95;1.88;;;;;;;-142.75;100.00;77718.06;5069870;28;20024;-67
2022/02/19 09:21:34;;;;;;;11.02;1.83;;;;;;;-142.75;100.00;77712.16;5070069;28;20101;-68
2022/02/19 09:24:00;;;;;;;;;;;;;;;-142.75;100.00;77725.97;5071893;28;20036;-68
2022/02/19 09:26:25;;;;;;;11.03;2.10;;;;;;;-142.75;100.00;77727.94;5070881;28;20290;-68
2022/02/19 09:28:51;;;;;;;8.07;1.60;;;;;;;-142.75;100.00;77725.97;5070702;28;20040;-68
2022/02/19 09:31:19;;;;;;;9.27;1.65;;;;;;;-142.75;100.00;77749.59;5069760;28;20113;-69
2022/02/19 09:33:45;;;;;;;17.27;1.83;;;;;;;-142.75;100.00;77767.31;5071026;28;20028;-68
2022/02/19 09:36:12;;;;;;;11.35;1.63;;;;;;;-142.75;100.00;77759.44;5071095;28;20023;-68
2022/02/19 09:38:38;;;;;;;14.77;2.17;;;;;;;-142.75;100.00;77720.03;5070732;28;20040;-68
2022/02/19 09:41:07;;;;;;;13.93;1.97;;;;;;;-142.75;100.00;77692.47;5070188;28;20059;-69
2022/02/19 09:43:36;;;;;;;11.10;1.43;;;;;;;-142.75;100.00;77655.06;5070854;28;20017;-68
2022/02/19 09:46:05;;;;;;;12.10;1.47;;;;;;;-142.75;100.00;77597.97;5070063;28;20025;-69
2022/02/19 09:48:32;;;;;;;14.60;1.70;;;;;;;-142.75;100.00;77613.72;5069483;28;20024;-69
2022/02/19 09:50:58;;;;;;;9.40;1.60;;;;;;;-142.75;100.00;77534.97;5070885;28;20032;-69
2022/02/19 09:53:24;;;;;;;;;;;;;;;-142.75;100.00;77483.78;5071303;28;20474;-69
2022/02/19 09:55:49;;;;;;;14.17;2.23;;;;;;;-142.75;100.00;77477.88;5070631;28;19912;-69
2022/02/19 09:58:14;;;;;;;15.00;1.73;;;;;;;-142.75;100.00;77406.97;5070158;28;20474;-69
2022/02/19 10:00:48;;;;;;;8.40;1.40;;;;;;;-142.75;100.00;77334.13;5070749;28;20024;-69
2022/02/19 10:03:23;;;;;;;12.33;1.67;;;;;;;-142.75;100.00;77357.75;5070935;28;20262;-69
2022/02/19 10:05:50;;;;;;;11.35;2.40;;;;;;;-142.75;100.00;77336.09;5071473;28;20028;-69
2022/02/19 10:08:16;;;;;;;12.73;2.20;;;;;;;-142.75;100.00;77342.00;5071090;28;20035;-69
2022/02/19 10:10:50;;;;;;;11.23;1.88;;;;;;;-142.75;100.00;77357.75;5070490;28;20033;-69
2022/02/19 10:13:33;;;;;;;17.00;1.80;;;;;;;-142.75;100.00;77428.63;5059300;28;20016;-69
2022/02/19 10:16:00;;;;;;;6.43;1.27;;;;;;;-142.75;100.00;77505.44;5051670;28;20380;-68
2022/02/19 10:18:35;;;;;;;12.40;1.45;;;;;;;-142.75;100.00;77542.84;5050554;28;20516;-69
2022/02/19 10:21:16;;;;;;;10.70;1.30;;;;;;;-142.75;100.00;77588.13;5049610;28;20029;-68
2022/02/19 10:23:54;;;;;;;11.93;2.00;;;;;;;-142.75;100.00;77621.59;5050348;28;20029;-69
2022/02/19 10:26:21;;;;;;;8.00;1.67;;;;;;;-142.75;100.00;77645.22;5069787;28;20476;-68
2022/02/19 10:29:19;;;;;;;11.77;1.73;;;;;;;-142.75;100.00;77686.56;5069139;28;20063;-68
2022/02/19 10:31:55;;;;;;;;;;;;;;;-142.75;100.00;77688.53;5047186;28;20040;-69
2022/02/19 10:34:20;;;;;;;14.00;1.97;;;;;;;-142.75;100.00;77718.06;5070782;28;19912;-68
2022/02/19 10:36:49;;;;;;;9.33;1.80;;;;;;;-142.75;100.00;77696.41;5066246;28;20032;-67
2022/02/19 10:39:26;;;;;;;10.10;1.60;;;;;;;-142.75;100.00;77643.25;5052765;28;20329;-68
2022/02/19 10:41:51;;;;;;;;;;;;;;;-142.75;100.00;77619.63;5059202;28;20028;-67
2022/02/19 10:44:25;;;;;;;13.87;2.23;;;;;;;-142.75;100.00;77570.41;5052443;28;19920;-67
2022/02/19 10:46:52;;;;;;;6.00;1.73;;;;;;;-142.75;100.00;77527.09;5050874;28;20029;-69
2022/02/19 10:49:18;;;;;;;16.47;1.67;;;;;;;-142.75;100.00;77542.84;5052747;28;20032;-69
2022/02/19 10:51:44;;;;;;;10.10;1.60;;;;;;;-142.75;100.00;77568.44;5061901;28;20470;-68
2022/02/19 10:54:10;;;;;;;;;;;;;;;-142.75;100.00;77562.53;5060682;28;20025;-69
2022/02/19 10:56:36;;;;;;;5.37;1.10;;;;;;;-142.75;100.00;77578.28;5055301;28;19919;-69
2022/02/19 10:59:07;;;;;;;12.83;1.97;;;;;;;-142.75;100.00;77556.63;5057555;28;20507;-68
2022/02/19 11:01:51;;;;;;;11.30;1.70;;;;;;;-142.75;100.00;77509.38;5058256;28;20024;-69
2022/02/19 11:06:47;;;;;;;11.03;2.07;;;;;;;-142.75;100.00;77487.72;5051078;22;20107;-66
2022/02/19 11:09:13;;;;;;;12.77;1.90;;;;;;;-142.75;100.00;77408.94;5030978;28;20033;-67
2022/02/19 11:11:41;;;;;;;12.13;1.57;;;;;;;-142.75;100.00;77349.88;5042423;28;20545;-67
2022/02/19 11:14:09;;;;;;;11.10;1.50;;;;;;;-142.75;100.00;77259.31;5039469;28;20063;-67